Terminal Aerodrome Forecast
Issued by NWS

Home | Current Version | Previous Version | Text Only | Print | Product List | Glossary On
Versions: 1 2 3 4 5 6 7 8 9 10 11 12 13 14 15 16 17 18 19 20 21 22 23 24 25 26 27 28
478
FTUS46 KSGX 261126
TAFSAN
TAF
KSAN 261126Z 2612/2718 20007KT P6SM SCT025 OVC040
     FM262000 25009KT P6SM SCT040
     FM270100 26007KT P6SM SCT025
     FM270600 VRB04KT P6SM OVC022=

USA.gov is the U.S. government's official web portal to all federal, state and local government web resources and services.